Impacts TAF Board INFO
FOR SITUATIONAL AWARENESS. NOT TO BE USED FOR FLIGHT PLANNING PURPOSES.
IDs:

KDCA - Washington/National, VA, US

Issued at 1125 UTC 20 Jan 2018
Updated at 1306 UTC 20 Jan 2018
Potential Impact None Slight Moderate High
Time1252Z 20/14Z 20/15Z 20/16Z 20/17Z 20/18Z 20/19Z 20/20Z 20/21Z 20/22Z 20/23Z 21/00Z 21/01Z 21/02Z>>
Type OBS PRVL PRVL PRVL PRVL PRVL PRVL PRVL PRVL PRVL PRVL PRVL PRVL PRVL
VIS 10 >6 >6 >6 >6 >6 >6 >6 >6 >6 >6 >6 >6 >6
CIG -- -- -- -- -- -- -- -- -- -- -- -- -- --
Cover SCT FEW FEW FEW FEW FEW FEW FEW FEW FEW FEW SCT SCT SCT
FltCat VFR VFR VFR VFR VFR VFR VFR VFR VFR VFR VFR VFR VFR VFR
WX -- -- -- -- -- -- -- -- -- -- -- -- -- --
WDir 190 220 220 220 220 220 220 220 220 220 220 280 280 280
WSpd 5 4 4 4 4 4 4 4 4 4 4 5 5 5
WGst -- -- -- -- -- -- -- -- -- -- -- -- -- --

Raw TAF
KDCA 201125Z 2012/2118 22004KT P6SM FEW150 FEW250
  FM210000 28005KT P6SM FEW200 SCT250
  FM211200 VRB03KT P6SM SCT025 BKN050


Raw METAR
KDCA 201252Z 19005KT 10SM SCT250 M02/M05 A3003 RMK AO2 SLP167 T10171050
KDCA 201152Z 20005KT 10SM FEW250 M02/M06 A3001 RMK AO2 SLP162 T10221056 10011 21022 51004
KDCA 201052Z 21003KT 10SM CLR M02/M06 A3001 RMK AO2 SLP161 T10171056

METAR Board
Radar Display
Forecast Discussion

FOR SITUATIONAL AWARENESS. NOT TO BE USED FOR FLIGHT PLANNING PURPOSES.